createdAt,value
2022-12-15T00:02:58.465Z,16.98
2022-12-15T00:05:50.412Z,16.80
2022-12-15T00:08:55.394Z,16.33
2022-12-15T00:11:54.410Z,16.52
2022-12-15T00:15:06.418Z,15.38
2022-12-15T00:18:18.383Z,15.63
2022-12-15T00:21:30.403Z,17.17
2022-12-15T00:24:42.377Z,16.45
2022-12-15T00:27:48.391Z,14.57
2022-12-15T00:30:49.976Z,16.98
2022-12-15T00:34:02.378Z,14.18
2022-12-15T00:37:07.379Z,16.60
2022-12-15T00:39:47.382Z,16.13
2022-12-15T00:42:35.411Z,16.98
2022-12-15T00:45:08.467Z,16.35
2022-12-15T00:47:55.415Z,17.70
2022-12-15T00:50:53.409Z,15.60
2022-12-15T00:53:58.397Z,15.43
2022-12-15T00:56:52.233Z,16.63
2022-12-15T00:59:57.386Z,16.25
2022-12-15T01:02:49.187Z,15.05
2022-12-15T01:05:55.412Z,15.75
2022-12-15T01:08:53.409Z,15.52
2022-12-15T01:11:58.398Z,15.98
2022-12-15T01:14:58.412Z,17.45
2022-12-15T01:18:10.418Z,16.65
2022-12-15T01:21:11.463Z,15.48
2022-12-15T01:23:52.504Z,17.00
2022-12-15T01:26:39.438Z,16.65
2022-12-15T01:29:19.417Z,16.05
2022-12-15T01:32:13.397Z,17.10
2022-12-15T01:35:01.468Z,16.20
2022-12-15T01:37:41.511Z,17.85
2022-12-15T01:40:53.461Z,18.23
2022-12-15T01:43:49.802Z,16.98
2022-12-15T01:46:43.522Z,17.13
2022-12-15T01:49:35.403Z,16.58
2022-12-15T01:52:19.396Z,17.60
2022-12-15T01:55:06.405Z,17.55
2022-12-15T01:57:41.676Z,15.30
2022-12-15T02:00:28.437Z,16.77
2022-12-15T02:03:10.590Z,17.50
2022-12-15T02:06:04.438Z,17.20
2022-12-15T02:09:00.501Z,16.45
2022-12-15T02:12:12.450Z,16.92
2022-12-15T02:15:44.545Z,17.17
2022-12-15T02:18:50.446Z,16.85
2022-12-15T02:21:56.432Z,17.58
2022-12-15T02:25:11.498Z,18.02
2022-12-15T02:28:07.449Z,17.05
2022-12-15T02:30:46.516Z,18.13
2022-12-15T02:33:37.457Z,16.88
2022-12-15T02:36:14.526Z,16.45
2022-12-15T02:39:01.482Z,17.05
2022-12-15T02:41:58.465Z,15.98
2022-12-15T02:44:52.444Z,16.38
2022-12-15T02:47:39.432Z,17.10
2022-12-15T02:50:55.448Z,17.13
2022-12-15T02:53:41.432Z,18.05
2022-12-15T02:56:42.432Z,17.77
2022-12-15T02:59:51.426Z,17.45
2022-12-15T03:02:41.523Z,17.08
2022-12-15T03:05:15.527Z,18.42
2022-12-15T03:08:02.438Z,17.90
2022-12-15T03:10:35.601Z,18.30
2022-12-15T03:13:22.460Z,18.77
2022-12-15T03:16:04.571Z,17.40
2022-12-15T03:18:58.570Z,17.83
2022-12-15T03:21:52.445Z,17.95
2022-12-15T03:24:46.454Z,18.60
2022-12-15T03:27:33.446Z,17.67
2022-12-15T03:30:06.532Z,16.88
2022-12-15T03:33:00.432Z,18.35
2022-12-15T03:35:47.429Z,18.45
2022-12-15T03:38:27.461Z,16.20
2022-12-15T03:41:14.454Z,17.30
2022-12-15T03:43:54.488Z,17.92
2022-12-15T03:46:41.487Z,17.33
2022-12-15T03:49:14.569Z,17.92
2022-12-15T03:52:01.447Z,16.73
2022-12-15T03:54:41.446Z,16.98
2022-12-15T03:57:35.485Z,18.08
2022-12-15T04:00:25.461Z,17.65
2022-12-15T04:03:06.612Z,18.25
2022-12-15T04:05:53.447Z,17.63
2022-12-15T04:08:33.462Z,17.38
2022-12-15T04:11:27.508Z,16.25
2022-12-15T04:14:22.439Z,17.40
2022-12-15T04:17:09.569Z,19.52
2022-12-15T04:20:02.159Z,19.02
2022-12-15T04:22:53.472Z,19.77
2022-12-15T04:25:50.188Z,19.27
2022-12-15T04:28:54.499Z,19.90
2022-12-15T04:31:52.309Z,20.58
2022-12-15T04:34:58.452Z,18.23
2022-12-15T04:37:59.482Z,21.23
2022-12-15T04:41:11.475Z,23.88
2022-12-15T04:44:16.490Z,23.95
2022-12-15T04:47:08.266Z,20.58
2022-12-15T04:50:14.514Z,21.25
2022-12-15T04:53:13.467Z,20.63
2022-12-15T04:56:18.965Z,19.92
2022-12-15T04:59:12.085Z,19.83
2022-12-15T05:02:16.619Z,18.88
2022-12-15T05:05:08.565Z,19.55
2022-12-15T05:08:13.534Z,18.20
2022-12-15T05:11:05.085Z,19.13
2022-12-15T05:14:09.474Z,18.52
2022-12-15T05:17:01.597Z,20.13
2022-12-15T05:20:07.486Z,16.92
2022-12-15T05:22:59.346Z,17.67
2022-12-15T05:26:04.467Z,17.60
2022-12-15T05:29:02.479Z,20.67
2022-12-15T05:31:58.489Z,18.77
2022-12-15T05:34:45.483Z,17.83
2022-12-15T05:37:18.583Z,19.27
2022-12-15T05:40:05.481Z,19.45
2022-12-15T05:42:38.571Z,19.60
2022-12-15T05:45:25.483Z,19.85
2022-12-15T05:47:59.581Z,20.65
2022-12-15T05:50:46.489Z,20.13
2022-12-15T05:53:19.553Z,21.33
2022-12-15T05:56:11.501Z,21.08
2022-12-15T05:58:45.857Z,22.38
2022-12-15T06:01:33.557Z,24.73
2022-12-15T06:04:07.471Z,25.77
2022-12-15T06:06:54.561Z,25.27
2022-12-15T06:09:27.571Z,24.75
2022-12-15T06:12:14.470Z,23.98
2022-12-15T06:14:47.603Z,22.65
2022-12-15T06:17:36.484Z,22.00
2022-12-15T06:20:09.592Z,20.02
2022-12-15T06:22:56.510Z,19.88
2022-12-15T06:25:29.580Z,21.65
2022-12-15T06:28:16.499Z,20.75
2022-12-15T06:30:49.552Z,20.05
2022-12-15T06:33:36.519Z,21.80
2022-12-15T06:36:12.699Z,19.33
2022-12-15T06:38:59.513Z,20.33
2022-12-15T06:41:40.553Z,17.48
2022-12-15T06:44:34.496Z,18.35
2022-12-15T06:47:28.490Z,19.45
2022-12-15T06:50:22.566Z,19.58
2022-12-15T06:53:16.514Z,19.00
2022-12-15T06:56:13.537Z,19.27
2022-12-15T06:58:46.589Z,19.42
2022-12-15T07:01:33.769Z,20.73
2022-12-15T07:04:07.677Z,22.38
2022-12-15T07:06:54.554Z,20.45
2022-12-15T07:09:34.536Z,20.65
2022-12-15T07:12:28.531Z,21.52
2022-12-15T07:15:15.568Z,21.27
2022-12-15T07:17:48.636Z,23.02
2022-12-15T07:20:35.528Z,24.70
2022-12-15T07:23:16.514Z,22.70
2022-12-15T07:26:11.806Z,23.20
2022-12-15T07:28:51.529Z,21.73
2022-12-15T07:31:38.807Z,22.42
2022-12-15T07:34:32.532Z,22.30
2022-12-15T07:37:19.521Z,20.65
2022-12-15T07:39:55.735Z,20.67
2022-12-15T07:42:42.526Z,21.13
2022-12-15T07:45:16.648Z,22.88
2022-12-15T07:48:03.514Z,22.63
2022-12-15T07:50:36.619Z,25.75
2022-12-15T07:53:23.540Z,22.48
2022-12-15T07:56:08.823Z,22.60
2022-12-15T07:58:50.553Z,22.73
2022-12-15T08:01:31.618Z,23.23
2022-12-15T08:04:12.550Z,24.45
2022-12-15T08:07:03.544Z,22.88
2022-12-15T08:09:43.527Z,24.10
2022-12-15T08:12:37.559Z,27.17
2022-12-15T08:15:31.533Z,27.05
2022-12-15T08:18:18.547Z,25.20
2022-12-15T08:20:51.611Z,26.52
2022-12-15T08:23:38.577Z,25.00
2022-12-15T08:26:21.578Z,26.05
2022-12-15T08:32:14.657Z,29.00
2022-12-15T08:35:01.539Z,29.02
2022-12-15T08:37:41.595Z,28.48
2022-12-15T08:40:35.547Z,27.98
2022-12-15T08:43:22.558Z,28.45
2022-12-15T08:45:58.652Z,27.23
2022-12-15T08:48:45.565Z,28.52
2022-12-15T08:51:18.630Z,29.60
2022-12-15T08:54:06.548Z,32.92
2022-12-15T08:56:49.567Z,32.90
2022-12-15T08:59:29.592Z,30.90
2022-12-15T09:02:09.646Z,28.95
2022-12-15T09:04:44.048Z,28.38
2022-12-15T09:07:30.544Z,28.42
2022-12-15T09:10:03.623Z,27.77
2022-12-15T09:12:50.574Z,26.55
2022-12-15T09:15:45.462Z,28.55
2022-12-15T09:18:31.580Z,28.50
2022-12-15T09:21:09.612Z,28.27
2022-12-15T09:23:58.555Z,27.88
2022-12-15T09:26:43.565Z,28.80
2022-12-15T09:29:37.569Z,28.73
2022-12-15T09:32:31.561Z,28.10
2022-12-15T09:35:18.583Z,29.50
2022-12-15T09:37:52.138Z,29.15
2022-12-15T09:40:39.586Z,29.13
2022-12-15T09:43:33.855Z,28.23
2022-12-15T09:46:27.690Z,42.00
2022-12-15T09:49:04.965Z,34.85
2022-12-15T09:51:57.613Z,25.98
2022-12-15T09:54:37.708Z,24.02
2022-12-15T09:57:33.585Z,23.13
2022-12-15T10:00:25.839Z,22.25
2022-12-15T10:03:23.686Z,22.65
2022-12-15T10:06:21.222Z,23.30
2022-12-15T10:09:21.581Z,24.55
2022-12-15T10:12:53.219Z,26.75
2022-12-15T10:16:04.648Z,27.38
2022-12-15T10:19:14.587Z,21.48
2022-12-15T10:21:54.656Z,21.33
2022-12-15T10:28:05.611Z,19.80
2022-12-15T10:30:39.804Z,21.50
2022-12-15T10:33:31.111Z,20.92
2022-12-15T10:36:04.669Z,21.08
2022-12-15T10:38:54.582Z,20.90
2022-12-15T10:41:29.668Z,21.38
2022-12-15T10:44:32.608Z,21.23
2022-12-15T10:47:23.603Z,21.02
2022-12-15T10:54:00.594Z,21.88
2022-12-15T10:57:09.591Z,24.95
2022-12-15T10:59:51.593Z,22.98
2022-12-15T11:02:42.776Z,23.38
2022-12-15T11:05:18.744Z,24.85
2022-12-15T11:08:24.602Z,25.08
2022-12-15T11:11:28.600Z,21.20
2022-12-15T11:14:24.601Z,20.20
2022-12-15T11:17:03.681Z,22.25
2022-12-15T11:19:58.263Z,22.17
2022-12-15T11:22:55.611Z,21.65
2022-12-15T11:25:50.598Z,21.27
2022-12-15T11:28:34.675Z,21.13
2022-12-15T11:31:27.598Z,21.33
2022-12-15T11:34:31.617Z,22.10
2022-12-15T11:37:36.219Z,24.17
2022-12-15T11:40:46.607Z,25.10
2022-12-15T11:44:20.680Z,24.20
2022-12-15T11:47:28.607Z,19.38
2022-12-15T11:50:31.747Z,19.02
2022-12-15T11:53:37.636Z,18.58
2022-12-15T11:56:35.628Z,21.83
2022-12-15T11:59:40.607Z,20.02
2022-12-15T12:02:47.729Z,20.83
2022-12-15T12:05:47.629Z,21.60
2022-12-15T12:09:07.615Z,23.60
2022-12-15T12:12:11.635Z,22.52
2022-12-15T12:15:10.631Z,23.95
2022-12-15T12:18:11.622Z,24.15
2022-12-15T12:21:05.748Z,21.88
2022-12-15T12:23:55.601Z,22.50
2022-12-15T12:26:53.704Z,24.63
2022-12-15T12:29:57.649Z,25.38
2022-12-15T12:32:46.651Z,24.25
2022-12-15T12:35:53.638Z,24.25
2022-12-15T12:38:52.676Z,24.42
2022-12-15T12:41:49.624Z,28.73
2022-12-15T12:44:43.618Z,26.10
2022-12-15T12:47:27.726Z,26.05
2022-12-15T12:50:23.649Z,27.10
2022-12-15T12:53:00.712Z,26.33
2022-12-15T12:55:48.629Z,25.27
2022-12-15T12:58:45.734Z,25.88
2022-12-15T13:01:38.804Z,25.50
2022-12-15T13:04:27.648Z,24.42
2022-12-15T13:07:48.641Z,23.60
2022-12-15T13:10:35.632Z,28.25
2022-12-15T13:13:23.719Z,28.83
2022-12-15T13:16:23.647Z,28.15
2022-12-15T13:19:18.694Z,32.33
2022-12-15T13:22:12.612Z,30.67
2022-12-15T13:25:06.635Z,28.77
2022-12-15T13:28:05.629Z,30.40
2022-12-15T13:31:23.821Z,29.42
2022-12-15T13:33:56.971Z,28.33
2022-12-15T13:36:43.647Z,26.38
2022-12-15T13:39:26.687Z,25.38
2022-12-15T13:42:33.528Z,24.65
2022-12-15T13:45:30.671Z,27.25
2022-12-15T13:48:31.696Z,23.85
2022-12-15T13:51:24.659Z,24.50
2022-12-15T13:54:11.703Z,23.55
2022-12-15T13:57:06.661Z,22.95
2022-12-15T13:59:46.637Z,23.02
2022-12-15T14:02:38.667Z,24.20
2022-12-15T14:05:14.811Z,24.67
2022-12-15T14:08:02.632Z,24.13
2022-12-15T14:14:09.640Z,22.38
2022-12-15T14:16:42.799Z,24.95
2022-12-15T14:19:34.938Z,28.10
2022-12-15T14:22:19.177Z,26.17
2022-12-15T14:25:20.656Z,27.70
2022-12-15T14:27:54.752Z,27.58
2022-12-15T14:30:41.666Z,25.85
2022-12-15T14:33:23.006Z,24.35
2022-12-15T14:36:17.664Z,24.67
2022-12-15T14:39:05.738Z,24.98
2022-12-15T14:41:55.693Z,23.42
2022-12-15T14:47:43.691Z,25.02
2022-12-15T14:50:23.330Z,29.63
2022-12-15T14:53:22.662Z,33.42
2022-12-15T14:55:55.750Z,29.00
2022-12-15T14:58:46.703Z,28.90
2022-12-15T15:01:31.903Z,28.02
2022-12-15T15:03:10.677Z,21.35
2022-12-15T15:03:16.117Z,25.85
2022-12-15T15:04:35.677Z,25.55
2022-12-15T15:07:11.771Z,33.05
2022-12-15T15:09:59.683Z,27.92
2022-12-15T15:12:57.665Z,31.52
2022-12-15T15:15:51.694Z,27.95
2022-12-15T15:18:38.673Z,28.95
2022-12-15T15:21:13.772Z,32.83
2022-12-15T15:24:08.678Z,34.38
2022-12-15T15:26:41.889Z,38.10
2022-12-15T15:29:49.677Z,32.33
2022-12-15T15:32:35.669Z,27.27
2022-12-15T15:35:29.709Z,29.42
2022-12-15T15:38:35.425Z,31.20
2022-12-15T15:41:21.072Z,31.30
2022-12-15T15:44:00.705Z,34.08
2022-12-15T15:46:51.727Z,41.40
2022-12-15T15:49:45.697Z,39.28
2022-12-15T15:52:35.691Z,44.50
2022-12-15T15:55:15.702Z,40.17
2022-12-15T15:58:09.687Z,41.88
2022-12-15T16:00:56.804Z,37.40
2022-12-15T16:03:30.043Z,38.10
2022-12-15T16:06:24.711Z,31.35
2022-12-15T16:09:06.689Z,33.53
2022-12-15T16:12:00.713Z,32.08
2022-12-15T16:14:47.708Z,31.80
2022-12-15T16:17:22.773Z,34.72
2022-12-15T16:20:10.725Z,35.45
2022-12-15T16:22:43.853Z,34.35
2022-12-15T16:25:48.422Z,38.72
2022-12-15T16:28:26.818Z,33.40
2022-12-15T16:31:20.722Z,32.75
2022-12-15T16:34:00.699Z,37.70
2022-12-15T16:36:54.705Z,38.80
2022-12-15T16:39:48.717Z,38.47
2022-12-15T16:42:35.700Z,30.98
2022-12-15T16:45:28.713Z,29.58
2022-12-15T16:48:22.770Z,26.08
2022-12-15T16:51:20.779Z,26.90
2022-12-15T16:54:14.806Z,27.77
2022-12-15T16:57:03.709Z,28.00
2022-12-15T16:59:36.785Z,25.20
2022-12-15T17:02:32.973Z,27.35
2022-12-15T17:05:06.879Z,25.75
2022-12-15T17:07:59.719Z,26.42
2022-12-15T17:10:36.293Z,28.52
2022-12-15T17:13:45.388Z,28.00
2022-12-15T17:16:19.859Z,28.40
2022-12-15T17:19:06.721Z,28.00
2022-12-15T17:21:45.856Z,28.38
2022-12-15T17:24:32.760Z,28.33
2022-12-15T17:27:12.804Z,29.15
2022-12-15T17:30:06.752Z,30.17
2022-12-15T17:33:00.729Z,31.30
2022-12-15T17:35:47.715Z,30.92
2022-12-15T17:38:25.275Z,34.75
2022-12-15T17:41:28.821Z,29.50
2022-12-15T17:44:31.895Z,27.55
2022-12-15T17:47:04.822Z,29.02
2022-12-15T17:49:44.763Z,28.77
2022-12-15T17:52:37.836Z,30.70
2022-12-15T17:55:34.997Z,39.72
2022-12-15T17:58:09.857Z,41.65
2022-12-15T18:00:59.730Z,38.17
2022-12-15T18:03:33.235Z,32.25
2022-12-15T18:06:21.764Z,29.65
2022-12-15T18:08:54.802Z,27.25
2022-12-15T18:11:41.755Z,28.45
2022-12-15T18:14:19.857Z,29.23
2022-12-15T18:17:06.749Z,29.63
2022-12-15T18:19:40.134Z,29.02
2022-12-15T18:22:30.748Z,30.50
2022-12-15T18:25:03.893Z,31.85
2022-12-15T18:27:50.733Z,29.65
2022-12-15T18:30:29.970Z,29.23
2022-12-15T18:33:24.738Z,28.33
2022-12-15T18:36:18.759Z,27.55
2022-12-15T18:39:12.757Z,25.55
2022-12-15T18:42:03.748Z,28.58
2022-12-15T18:44:38.819Z,28.00
2022-12-15T18:47:31.807Z,28.38
2022-12-15T18:50:04.973Z,29.67
2022-12-15T18:52:51.781Z,27.77
2022-12-15T18:55:28.863Z,30.15
2022-12-15T18:58:30.777Z,34.50
2022-12-15T19:01:06.905Z,34.35
2022-12-15T19:03:53.758Z,33.22
2022-12-15T19:06:43.747Z,30.50
2022-12-15T19:09:37.755Z,30.08
2022-12-15T19:12:24.751Z,28.27
2022-12-15T19:14:59.022Z,28.70
2022-12-15T19:18:03.949Z,30.33
2022-12-15T19:20:55.370Z,29.70
2022-12-15T19:23:41.772Z,28.75
2022-12-15T19:26:17.861Z,28.58
2022-12-15T19:29:04.786Z,27.65
2022-12-15T19:31:37.905Z,28.60
2022-12-15T19:34:24.792Z,28.25
2022-12-15T19:36:57.859Z,27.30
2022-12-15T19:39:44.762Z,37.55
2022-12-15T19:42:32.769Z,30.60
2022-12-15T19:45:35.806Z,49.20
2022-12-15T19:48:24.156Z,46.35
2022-12-15T19:51:04.769Z,32.42
2022-12-15T19:53:55.779Z,30.30
2022-12-15T19:56:36.781Z,32.13
2022-12-15T19:59:31.777Z,38.97
2022-12-15T20:02:05.092Z,31.20
2022-12-15T20:04:51.788Z,30.38
2022-12-15T20:07:30.902Z,29.98
2022-12-15T20:10:32.919Z,27.10
2022-12-15T20:13:07.598Z,33.20
2022-12-15T20:15:54.829Z,30.77
2022-12-15T20:18:35.293Z,30.70
2022-12-15T20:21:29.798Z,29.17
2022-12-15T20:24:28.791Z,40.25
2022-12-15T20:27:30.785Z,36.47
2022-12-15T20:30:29.800Z,35.72
2022-12-15T20:33:03.001Z,34.33
2022-12-15T20:35:51.784Z,31.83
2022-12-15T20:38:35.792Z,31.33
2022-12-15T20:41:33.795Z,30.98
2022-12-15T20:44:06.985Z,31.95
2022-12-15T20:46:53.787Z,34.20
2022-12-15T20:49:28.910Z,34.03
2022-12-15T20:52:25.798Z,32.75
2022-12-15T20:55:02.979Z,28.48
2022-12-15T20:57:49.803Z,25.13
2022-12-15T21:00:30.942Z,24.73
2022-12-15T21:03:37.195Z,25.08
2022-12-15T21:06:24.813Z,24.63
2022-12-15T21:08:59.052Z,23.90
2022-12-15T21:11:46.850Z,25.67
2022-12-15T21:14:26.013Z,24.88
2022-12-15T21:17:12.859Z,23.33
2022-12-15T21:19:52.806Z,23.25
2022-12-15T21:22:48.855Z,23.42
2022-12-15T21:25:42.840Z,29.13
2022-12-15T21:28:36.811Z,27.67
2022-12-15T21:31:25.922Z,29.77
2022-12-15T21:33:59.903Z,30.15
2022-12-15T21:36:54.928Z,31.13
2022-12-15T21:39:39.866Z,32.35
2022-12-15T21:42:33.811Z,34.53
2022-12-15T21:45:26.859Z,35.90
2022-12-15T21:48:18.574Z,31.63
2022-12-15T21:51:04.833Z,28.08
2022-12-15T21:53:37.879Z,26.15
2022-12-15T21:56:26.806Z,27.88
2022-12-15T21:59:00.465Z,28.33
2022-12-15T22:01:46.981Z,28.08
2022-12-15T22:04:26.951Z,29.95
2022-12-15T22:07:20.814Z,27.20
2022-12-15T22:10:00.828Z,24.52
2022-12-15T22:12:59.750Z,26.83
2022-12-15T22:15:54.716Z,28.45
2022-12-15T22:18:44.869Z,30.85
2022-12-15T22:21:24.804Z,31.30
2022-12-15T22:24:11.870Z,28.88
2022-12-15T22:26:47.217Z,28.33
2022-12-15T22:29:36.845Z,28.02
2022-12-15T22:32:19.967Z,28.67
2022-12-15T22:35:06.831Z,29.05
2022-12-15T22:37:39.962Z,29.15
2022-12-15T22:40:27.874Z,30.85
2022-12-15T22:43:02.955Z,42.90
2022-12-15T22:45:49.869Z,39.60
2022-12-15T22:48:26.935Z,32.33
2022-12-15T22:51:14.884Z,32.30
2022-12-15T22:53:48.989Z,40.88
2022-12-15T22:56:44.846Z,30.02
2022-12-15T22:59:26.121Z,34.00
2022-12-15T23:02:12.833Z,32.08
2022-12-15T23:04:46.980Z,30.67
2022-12-15T23:07:34.820Z,29.42
2022-12-15T23:10:26.703Z,28.67
2022-12-15T23:13:13.870Z,28.05
2022-12-15T23:16:11.918Z,27.75
2022-12-15T23:19:01.873Z,44.10
2022-12-15T23:21:41.881Z,31.35
2022-12-15T23:24:35.872Z,30.25
2022-12-15T23:27:25.875Z,27.58
2022-12-15T23:29:58.947Z,27.35
2022-12-15T23:32:45.883Z,28.95
2022-12-15T23:35:25.886Z,27.67
2022-12-15T23:38:19.874Z,25.98
2022-12-15T23:41:13.875Z,24.38
2022-12-15T23:44:08.909Z,26.55
2022-12-15T23:46:55.957Z,25.90
2022-12-15T23:49:31.645Z,26.40
2022-12-15T23:52:20.863Z,25.75
2022-12-15T23:55:00.897Z,25.15
2022-12-15T23:57:54.908Z,24.55
